OOCL Nagoya — VRFX8 — position and weather

sailwx.info

Track history (hours):
 
Tides and Currents Weather Stations Pressure Air Temp Water Temp Dewpoint Dewpoint Depression Visibility Wind Speed Wind Dir Waves Ship Positions

OOCL Nagoya

Last reported at 2017-Sep-19 10:42 UTC. Time now 2017-Sep-22 13:27 UTC.
Position N 22°26' E 113°53'.

Length 261 m; draft 11.6 m.

Type: Cargo ship. MMSI: 477627900.

Date/timePositionNaut miles runAvg speedWind from/ knotsBaromVisibWave heightAir tempDewpointWater temp
2017-Sep-19 10:42N 22°26' E 113°53'2 8.4
2017-Sep-19 10:29N 22°24' E 113°54'13 9.7
2017-Sep-19 09:07N 22°20' E 114°07'0 0.0
2017-Sep-18 22:25N 22°20' E 114°07'160 9.3
2017-Sep-18 05:11N 22°18' E 117°00'16013.3
2017-Sep-17 17:12N 22°31' E 119°53'712.6
2017-Sep-17 16:40N 22°32' E 120°00'312.7
2017-Sep-17 16:28N 22°32' E 120°03'612.7
2017-Sep-17 16:00N 22°32' E 120°09'612.8
2017-Sep-17 15:30N 22°33' E 120°16'3 6.0
2017-Sep-17 15:00N 22°33' E 120°19'1 2.7
2017-Sep-17 14:30N 22°34' E 120°18'0 0.0
2017-Sep-17 13:59N 22°34' E 120°18'0 0.0
2017-Sep-17 13:29N 22°34' E 120°18'0 0.0
2017-Sep-17 12:59N 22°34' E 120°18'0 0.0
2017-Sep-17 12:29N 22°34' E 120°18'0 0.0
2017-Sep-17 11:59N 22°34' E 120°18'0 0.0
2017-Sep-17 11:26N 22°34' E 120°18'0 0.0
2017-Sep-17 10:59N 22°34' E 120°18'0 0.0
2017-Sep-17 10:26N 22°34' E 120°18'0 0.0
2017-Sep-17 09:59N 22°34' E 120°18'0 0.0
2017-Sep-17 09:29N 22°34' E 120°18'0 0.0
2017-Sep-17 08:56N 22°34' E 120°18'0 0.0
2017-Sep-17 08:26N 22°34' E 120°18'0 0.0
2017-Sep-17 07:59N 22°34' E 120°18'0 0.0
2017-Sep-17 07:29N 22°34' E 120°18'0 0.0
2017-Sep-17 06:59N 22°34' E 120°18'0 0.0
2017-Sep-17 06:29N 22°34' E 120°18'0 0.0
2017-Sep-17 05:56N 22°34' E 120°18'0 0.0
2017-Sep-17 05:29N 22°34' E 120°18'0 0.0
2017-Sep-17 04:59N 22°34' E 120°18'0 0.0
2017-Sep-17 04:29N 22°34' E 120°18'0 0.0
2017-Sep-17 03:56N 22°34' E 120°18'0 0.0
2017-Sep-17 03:29N 22°34' E 120°18'0 0.0
2017-Sep-17 02:59N 22°34' E 120°18'0 0.8
2017-Sep-17 02:30N 22°34' E 120°19'2 4.1
2017-Sep-17 02:00N 22°33' E 120°17'4 8.8
2017-Sep-17 01:30N 22°30' E 120°13'611.7
2017-Sep-17 01:00N 22°24' E 120°13'713.2
2017-Sep-17 00:30N 22°18' E 120°14'815.9
2017-Sep-17 00:01N 22°11' E 120°18'  
2017-Sep-14 10:51N 33°56' E 134°55'721.3
2017-Sep-14 10:30N 34°03' E 134°56'1019.0
2017-Sep-14 10:00N 34°13' E 134°58'612.0
2017-Sep-14 09:30N 34°19' E 134°59'1019.0
2017-Sep-14 09:00N 34°27' E 135°05'1020.2
2017-Sep-14 08:30N 34°34' E 135°13'611.8
2017-Sep-14 08:00N 34°40' E 135°15'0 0.4
2017-Sep-14 07:15N 34°39' E 135°15'0 0.0
2017-Sep-14 06:57N 34°39' E 135°15'0 0.0
2017-Sep-14 06:21N 34°39' E 135°15'0 0.0
2017-Sep-14 05:57N 34°39' E 135°15'0 0.0
2017-Sep-14 05:27N 34°39' E 135°15'0 0.0
2017-Sep-14 04:57N 34°39' E 135°15'0 0.0
2017-Sep-14 04:21N 34°39' E 135°15'0 0.0
2017-Sep-14 03:57N 34°39' E 135°15'0 0.0
2017-Sep-14 03:21N 34°39' E 135°15'0 0.1
2017-Sep-14 02:57N 34°39' E 135°15'0 0.0
2017-Sep-14 02:27N 34°39' E 135°15'0 0.0
2017-Sep-14 01:57N 34°39' E 135°15'0 0.0
2017-Sep-14 01:27N 34°39' E 135°15'0 0.0
2017-Sep-14 00:57N 34°39' E 135°15'0 0.0
2017-Sep-14 00:27N 34°39' E 135°15'0 0.0
2017-Sep-13 23:57N 34°39' E 135°15'0 0.0
2017-Sep-13 23:21N 34°39' E 135°15'0 0.0
2017-Sep-13 22:51N 34°39' E 135°15'0 0.3
2017-Sep-13 22:30N 34°39' E 135°15'4 8.5
2017-Sep-13 22:01N 34°35' E 135°15'815.3
2017-Sep-13 21:30N 34°29' E 135°10'816.2
2017-Sep-13 21:00N 34°22' E 135°03'815.3
2017-Sep-13 20:30N 34°16' E 134°59'713.3
2017-Sep-13 20:00N 34°09' E 134°60'713.8
2017-Sep-13 19:31N 34°02' E 135°00'611.5
2017-Sep-13 19:00N 33°57' E 135°00'220 4.8
2017-Sep-11 21:28N 34°52' E 139°18'511.1
2017-Sep-11 21:00N 34°55' E 139°23'510.9
2017-Sep-11 20:30N 34°58' E 139°28'611.3
2017-Sep-11 20:00N 35°01' E 139°34'611.9
2017-Sep-11 19:30N 35°05' E 139°40'612.0
2017-Sep-11 19:00N 35°09' E 139°45'510.1
2017-Sep-11 18:30N 35°14' E 139°46'612.9
2017-Sep-11 18:00N 35°20' E 139°43'713.5
2017-Sep-11 17:31N 35°26' E 139°46'714.7
2017-Sep-11 17:00N 35°32' E 139°51'510.0
2017-Sep-11 16:30N 35°36' E 139°47'0 0.5
2017-Sep-11 16:01N 35°36' E 139°47'0 0.0
2017-Sep-11 15:30N 35°36' E 139°47'0 0.0
2017-Sep-11 14:59N 35°36' E 139°47'0 0.0
2017-Sep-11 14:29N 35°36' E 139°47'0 0.0
2017-Sep-11 13:59N 35°36' E 139°47'0 0.0
2017-Sep-11 13:29N 35°36' E 139°47'0 0.0
2017-Sep-11 12:59N 35°36' E 139°47'0 0.0
2017-Sep-11 12:29N 35°36' E 139°47'0 0.0
2017-Sep-11 11:53N 35°36' E 139°47'0 0.0
2017-Sep-11 11:29N 35°36' E 139°47'0 0.0
2017-Sep-11 10:59N 35°36' E 139°47'0 0.0
2017-Sep-11 10:29N 35°36' E 139°47'0 0.0
2017-Sep-11 09:59N 35°36' E 139°47'0 0.0
2017-Sep-11 09:29N 35°36' E 139°47'0 0.0
2017-Sep-11 08:59N 35°36' E 139°47'0 0.0
2017-Sep-11 08:26N 35°36' E 139°47'0 0.0
2017-Sep-11 07:59N 35°36' E 139°47'0 0.0
2017-Sep-11 07:29N 35°36' E 139°47'0 0.0
2017-Sep-11 06:59N 35°36' E 139°47'0 0.0
2017-Sep-11 06:29N 35°36' E 139°47'0 0.0
2017-Sep-11 05:59N 35°36' E 139°47'0 0.0
2017-Sep-11 05:29N 35°36' E 139°47'0 0.0
2017-Sep-11 04:59N 35°36' E 139°47'0 0.0
2017-Sep-11 04:29N 35°36' E 139°47'0 0.0
2017-Sep-11 03:59N 35°36' E 139°47'0 0.2
2017-Sep-11 03:30N 35°36' E 139°47'2 4.9
2017-Sep-11 03:00N 35°34' E 139°49'510.9
2017-Sep-11 02:30N 35°29' E 139°52'815.9
2017-Sep-11 02:00N 35°23' E 139°46'611.8
2017-Sep-11 01:30N 35°17' E 139°45'612.3
2017-Sep-11 01:00N 35°11' E 139°47'5 9.0
2017-Sep-11 00:30N 35°07' E 139°46'612.6
2017-Sep-11 00:00N 35°02' E 139°41'611.2
2017-Sep-10 23:30N 34°59' E 139°35'510.8
2017-Sep-10 23:00N 34°56' E 139°30'611.5
2017-Sep-10 22:27N 34°53' E 139°23'37016.5
2017-Sep-10 00:00N 31°48' E 133°00'   070 / 61004.810.8 30.020.025.0
Track history (hours):
 
Tides and Currents Weather Stations Pressure Air Temp Water Temp Dewpoint Dewpoint Depression Visibility Wind Speed Wind Dir Waves Ship Positions

OOCL Nagoya

Last reported at 2017-Sep-19 10:42 UTC. Time now 2017-Sep-22 13:27 UTC.
Position N 22°26' E 113°53'.

Length 261 m; draft 11.6 m.

Type: Cargo ship. MMSI: 477627900.

Date/timePositionNaut miles runAvg speedWind from/ knotsBaromVisibWave heightAir tempDewpointWater temp
2017-Sep-19 10:42N 22°26' E 113°53'2 8.4
2017-Sep-19 10:29N 22°24' E 113°54'13 9.7
2017-Sep-19 09:07N 22°20' E 114°07'0 0.0
2017-Sep-18 22:25N 22°20' E 114°07'160 9.3
2017-Sep-18 05:11N 22°18' E 117°00'16013.3
2017-Sep-17 17:12N 22°31' E 119°53'712.6
2017-Sep-17 16:40N 22°32' E 120°00'312.7
2017-Sep-17 16:28N 22°32' E 120°03'612.7
2017-Sep-17 16:00N 22°32' E 120°09'612.8
2017-Sep-17 15:30N 22°33' E 120°16'3 6.0
2017-Sep-17 15:00N 22°33' E 120°19'1 2.7
2017-Sep-17 14:30N 22°34' E 120°18'0 0.0
2017-Sep-17 13:59N 22°34' E 120°18'0 0.0
2017-Sep-17 13:29N 22°34' E 120°18'0 0.0
2017-Sep-17 12:59N 22°34' E 120°18'0 0.0
2017-Sep-17 12:29N 22°34' E 120°18'0 0.0
2017-Sep-17 11:59N 22°34' E 120°18'0 0.0
2017-Sep-17 11:26N 22°34' E 120°18'0 0.0
2017-Sep-17 10:59N 22°34' E 120°18'0 0.0
2017-Sep-17 10:26N 22°34' E 120°18'0 0.0
2017-Sep-17 09:59N 22°34' E 120°18'0 0.0
2017-Sep-17 09:29N 22°34' E 120°18'0 0.0
2017-Sep-17 08:56N 22°34' E 120°18'0 0.0
2017-Sep-17 08:26N 22°34' E 120°18'0 0.0
2017-Sep-17 07:59N 22°34' E 120°18'0 0.0
2017-Sep-17 07:29N 22°34' E 120°18'0 0.0
2017-Sep-17 06:59N 22°34' E 120°18'0 0.0
2017-Sep-17 06:29N 22°34' E 120°18'0 0.0
2017-Sep-17 05:56N 22°34' E 120°18'0 0.0
2017-Sep-17 05:29N 22°34' E 120°18'0 0.0
2017-Sep-17 04:59N 22°34' E 120°18'0 0.0
2017-Sep-17 04:29N 22°34' E 120°18'0 0.0
2017-Sep-17 03:56N 22°34' E 120°18'0 0.0
2017-Sep-17 03:29N 22°34' E 120°18'0 0.0
2017-Sep-17 02:59N 22°34' E 120°18'0 0.8
2017-Sep-17 02:30N 22°34' E 120°19'2 4.1
2017-Sep-17 02:00N 22°33' E 120°17'4 8.8
2017-Sep-17 01:30N 22°30' E 120°13'611.7
2017-Sep-17 01:00N 22°24' E 120°13'713.2
2017-Sep-17 00:30N 22°18' E 120°14'815.9
2017-Sep-17 00:01N 22°11' E 120°18'  
2017-Sep-14 10:51N 33°56' E 134°55'721.3
2017-Sep-14 10:30N 34°03' E 134°56'1019.0
2017-Sep-14 10:00N 34°13' E 134°58'612.0
2017-Sep-14 09:30N 34°19' E 134°59'1019.0
2017-Sep-14 09:00N 34°27' E 135°05'1020.2
2017-Sep-14 08:30N 34°34' E 135°13'611.8
2017-Sep-14 08:00N 34°40' E 135°15'0 0.4
2017-Sep-14 07:15N 34°39' E 135°15'0 0.0
2017-Sep-14 06:57N 34°39' E 135°15'0 0.0
2017-Sep-14 06:21N 34°39' E 135°15'0 0.0
2017-Sep-14 05:57N 34°39' E 135°15'0 0.0
2017-Sep-14 05:27N 34°39' E 135°15'0 0.0
2017-Sep-14 04:57N 34°39' E 135°15'0 0.0
2017-Sep-14 04:21N 34°39' E 135°15'0 0.0
2017-Sep-14 03:57N 34°39' E 135°15'0 0.0
2017-Sep-14 03:21N 34°39' E 135°15'0 0.1
2017-Sep-14 02:57N 34°39' E 135°15'0 0.0
2017-Sep-14 02:27N 34°39' E 135°15'0 0.0
2017-Sep-14 01:57N 34°39' E 135°15'0 0.0
2017-Sep-14 01:27N 34°39' E 135°15'0 0.0
2017-Sep-14 00:57N 34°39' E 135°15'0 0.0
2017-Sep-14 00:27N 34°39' E 135°15'0 0.0
2017-Sep-13 23:57N 34°39' E 135°15'0 0.0
2017-Sep-13 23:21N 34°39' E 135°15'0 0.0
2017-Sep-13 22:51N 34°39' E 135°15'0 0.3
2017-Sep-13 22:30N 34°39' E 135°15'4 8.5
2017-Sep-13 22:01N 34°35' E 135°15'815.3
2017-Sep-13 21:30N 34°29' E 135°10'816.2
2017-Sep-13 21:00N 34°22' E 135°03'815.3
2017-Sep-13 20:30N 34°16' E 134°59'713.3
2017-Sep-13 20:00N 34°09' E 134°60'713.8
2017-Sep-13 19:31N 34°02' E 135°00'611.5
2017-Sep-13 19:00N 33°57' E 135°00'220 4.8
2017-Sep-11 21:28N 34°52' E 139°18'511.1
2017-Sep-11 21:00N 34°55' E 139°23'510.9
2017-Sep-11 20:30N 34°58' E 139°28'611.3
2017-Sep-11 20:00N 35°01' E 139°34'611.9
2017-Sep-11 19:30N 35°05' E 139°40'612.0
2017-Sep-11 19:00N 35°09' E 139°45'510.1
2017-Sep-11 18:30N 35°14' E 139°46'612.9
2017-Sep-11 18:00N 35°20' E 139°43'713.5
2017-Sep-11 17:31N 35°26' E 139°46'714.7
2017-Sep-11 17:00N 35°32' E 139°51'510.0
2017-Sep-11 16:30N 35°36' E 139°47'0 0.5
2017-Sep-11 16:01N 35°36' E 139°47'0 0.0
2017-Sep-11 15:30N 35°36' E 139°47'0 0.0
2017-Sep-11 14:59N 35°36' E 139°47'0 0.0
2017-Sep-11 14:29N 35°36' E 139°47'0 0.0
2017-Sep-11 13:59N 35°36' E 139°47'0 0.0
2017-Sep-11 13:29N 35°36' E 139°47'0 0.0
2017-Sep-11 12:59N 35°36' E 139°47'0 0.0
2017-Sep-11 12:29N 35°36' E 139°47'0 0.0
2017-Sep-11 11:53N 35°36' E 139°47'0 0.0
2017-Sep-11 11:29N 35°36' E 139°47'0 0.0
2017-Sep-11 10:59N 35°36' E 139°47'0 0.0
2017-Sep-11 10:29N 35°36' E 139°47'0 0.0
2017-Sep-11 09:59N 35°36' E 139°47'0 0.0
2017-Sep-11 09:29N 35°36' E 139°47'0 0.0
2017-Sep-11 08:59N 35°36' E 139°47'0 0.0
2017-Sep-11 08:26N 35°36' E 139°47'0 0.0
2017-Sep-11 07:59N 35°36' E 139°47'0 0.0
2017-Sep-11 07:29N 35°36' E 139°47'0 0.0
2017-Sep-11 06:59N 35°36' E 139°47'0 0.0
2017-Sep-11 06:29N 35°36' E 139°47'0 0.0
2017-Sep-11 05:59N 35°36' E 139°47'0 0.0
2017-Sep-11 05:29N 35°36' E 139°47'0 0.0
2017-Sep-11 04:59N 35°36' E 139°47'0 0.0
2017-Sep-11 04:29N 35°36' E 139°47'0 0.0
2017-Sep-11 03:59N 35°36' E 139°47'0 0.2
2017-Sep-11 03:30N 35°36' E 139°47'2 4.9
2017-Sep-11 03:00N 35°34' E 139°49'510.9
2017-Sep-11 02:30N 35°29' E 139°52'815.9
2017-Sep-11 02:00N 35°23' E 139°46'611.8
2017-Sep-11 01:30N 35°17' E 139°45'612.3
2017-Sep-11 01:00N 35°11' E 139°47'5 9.0
2017-Sep-11 00:30N 35°07' E 139°46'612.6
2017-Sep-11 00:00N 35°02' E 139°41'611.2
2017-Sep-10 23:30N 34°59' E 139°35'510.8
2017-Sep-10 23:00N 34°56' E 139°30'611.5
2017-Sep-10 22:27N 34°53' E 139°23'37016.5
2017-Sep-10 00:00N 31°48' E 133°00'   070 / 61004.810.8 30.020.025.0

Dump ship's entire track history